Terminal Aerodrome Forecast
Issued by NWS

Home | Current Version | Previous Version | Text Only | Print | Product List | Glossary On
Versions: 1 2 3 4 5 6 7 8 9 10 11 12 13 14 15 16
000
FTUS43 KJKL 190520
TAFSJS
TAF
KSJS 190520Z 1906/2006 31009G18KT P6SM -RA BKN020
     FM190800 30008G17KT P6SM BKN050
     FM191000 29008G18KT P6SM OVC025
     FM192000 31007KT P6SM SCT030 SCT200=

USA.gov is the U.S. government's official web portal to all federal, state and local government web resources and services.